sensor_id;sensor_type;location;lat;lon;timestamp;temperature;humidity
6468;DHT22;3267;48.794;9.928;2023-06-26T04:03:07;23.10;45.80
6468;DHT22;3267;48.794;9.928;2023-06-26T04:05:35;23.10;45.80
6468;DHT22;3267;48.794;9.928;2023-06-26T04:08:01;23.00;45.70
6468;DHT22;3267;48.794;9.928;2023-06-26T04:10:31;25.20;47.90
6468;DHT22;3267;48.794;9.928;2023-06-26T04:12:56;22.90;46.10
6468;DHT22;3267;48.794;9.928;2023-06-26T04:15:22;22.90;46.10
6468;DHT22;3267;48.794;9.928;2023-06-26T04:17:48;22.90;46.40
6468;DHT22;3267;48.794;9.928;2023-06-26T04:20:13;22.90;46.50
6468;DHT22;3267;48.794;9.928;2023-06-26T04:22:40;24.90;48.20
6468;DHT22;3267;48.794;9.928;2023-06-26T04:25:05;22.80;46.30
6468;DHT22;3267;48.794;9.928;2023-06-26T04:27:31;22.90;46.30
6468;DHT22;3267;48.794;9.928;2023-06-26T04:29:57;22.90;46.20
6468;DHT22;3267;48.794;9.928;2023-06-26T04:32:23;23.00;46.30
6468;DHT22;3267;48.794;9.928;2023-06-26T04:34:49;23.00;46.20
6468;DHT22;3267;48.794;9.928;2023-06-26T04:37:14;23.00;46.10
6468;DHT22;3267;48.794;9.928;2023-06-26T04:39:42;23.00;46.00
6468;DHT22;3267;48.794;9.928;2023-06-26T04:42:08;23.10;46.20
6468;DHT22;3267;48.794;9.928;2023-06-26T04:44:34;23.10;46.20
6468;DHT22;3267;48.794;9.928;2023-06-26T04:47:00;23.10;46.20
6468;DHT22;3267;48.794;9.928;2023-06-26T04:49:26;23.10;46.20
6468;DHT22;3267;48.794;9.928;2023-06-26T04:51:54;23.10;46.20
6468;DHT22;3267;48.794;9.928;2023-06-26T04:54:19;23.20;46.30
6468;DHT22;3267;48.794;9.928;2023-06-26T04:56:45;23.10;46.20
6468;DHT22;3267;48.794;9.928;2023-06-26T04:59:12;23.20;46.20
6468;DHT22;3267;48.794;9.928;2023-06-26T05:01:38;23.20;46.20
6468;DHT22;3267;48.794;9.928;2023-06-26T05:04:05;23.30;46.40
6468;DHT22;3267;48.794;9.928;2023-06-26T05:06:31;23.40;46.90
6468;DHT22;3267;48.794;9.928;2023-06-26T05:08:56;23.30;46.50
6468;DHT22;3267;48.794;9.928;2023-06-26T05:11:22;23.20;46.30
6468;DHT22;3267;48.794;9.928;2023-06-26T05:13:49;23.30;46.40
6468;DHT22;3267;48.794;9.928;2023-06-26T05:16:15;25.00;47.70
6468;DHT22;3267;48.794;9.928;2023-06-26T05:18:40;24.50;47.40
6468;DHT22;3267;48.794;9.928;2023-06-26T05:21:06;23.40;46.70
6468;DHT22;3267;48.794;9.928;2023-06-26T05:23:33;23.40;46.80
6468;DHT22;3267;48.794;9.928;2023-06-26T05:26:00;23.50;47.10
6468;DHT22;3267;48.794;9.928;2023-06-26T05:28:27;23.50;47.10
6468;DHT22;3267;48.794;9.928;2023-06-26T05:30:54;23.50;47.20
6468;DHT22;3267;48.794;9.928;2023-06-26T05:33:22;23.50;47.30
6468;DHT22;3267;48.794;9.928;2023-06-26T05:35:49;25.10;48.40
6468;DHT22;3267;48.794;9.928;2023-06-26T05:38:16;23.60;47.90
6468;DHT22;3267;48.794;9.928;2023-06-26T05:40:42;23.60;47.20
6468;DHT22;3267;48.794;9.928;2023-06-26T05:43:07;23.60;47.60
6468;DHT22;3267;48.794;9.928;2023-06-26T05:45:33;23.60;47.50
6468;DHT22;3267;48.794;9.928;2023-06-26T05:47:59;23.60;47.50
6468;DHT22;3267;48.794;9.928;2023-06-26T05:50:25;23.60;47.80
6468;DHT22;3267;48.794;9.928;2023-06-26T05:52:52;23.60;48.20
6468;DHT22;3267;48.794;9.928;2023-06-26T05:55:18;23.70;48.10
6468;DHT22;3267;48.794;9.928;2023-06-26T05:57:45;23.70;48.60
6468;DHT22;3267;48.794;9.928;2023-06-26T06:00:12;23.70;49.20
6468;DHT22;3267;48.794;9.928;2023-06-26T06:02:39;23.70;48.50
6468;DHT22;3267;48.794;9.928;2023-06-26T06:05:05;23.70;48.90
6468;DHT22;3267;48.794;9.928;2023-06-26T06:07:32;23.80;49.60
6468;DHT22;3267;48.794;9.928;2023-06-26T06:09:58;23.80;49.30
6468;DHT22;3267;48.794;9.928;2023-06-26T06:12:24;23.90;48.80
6468;DHT22;3267;48.794;9.928;2023-06-26T06:14:49;23.90;49.00
6468;DHT22;3267;48.794;9.928;2023-06-26T06:17:15;23.90;48.90
6468;DHT22;3267;48.794;9.928;2023-06-26T06:19:41;24.20;49.20
6468;DHT22;3267;48.794;9.928;2023-06-26T06:22:06;24.10;49.00
6468;DHT22;3267;48.794;9.928;2023-06-26T06:24:32;24.10;49.70
6468;DHT22;3267;48.794;9.928;2023-06-26T06:26:59;24.20;49.50
6468;DHT22;3267;48.794;9.928;2023-06-26T06:29:24;24.20;50.00
6468;DHT22;3267;48.794;9.928;2023-06-26T06:31:50;24.20;50.80
6468;DHT22;3267;48.794;9.928;2023-06-26T06:34:16;24.20;50.40
6468;DHT22;3267;48.794;9.928;2023-06-26T06:36:42;24.40;50.70
6468;DHT22;3267;48.794;9.928;2023-06-26T06:39:08;24.40;50.70
6468;DHT22;3267;48.794;9.928;2023-06-26T06:41:33;24.50;51.20
6468;DHT22;3267;48.794;9.928;2023-06-26T06:43:59;24.50;50.00
6468;DHT22;3267;48.794;9.928;2023-06-26T06:46:25;24.60;49.90
6468;DHT22;3267;48.794;9.928;2023-06-26T06:48:53;26.30;51.30
6468;DHT22;3267;48.794;9.928;2023-06-26T06:51:18;25.30;51.10
6468;DHT22;3267;48.794;9.928;2023-06-26T06:53:44;24.90;48.50
6468;DHT22;3267;48.794;9.928;2023-06-26T06:56:09;24.90;49.80
6468;DHT22;3267;48.794;9.928;2023-06-26T06:58:35;26.00;50.80
6468;DHT22;3267;48.794;9.928;2023-06-26T07:01:01;26.90;51.00
6468;DHT22;3267;48.794;9.928;2023-06-26T07:03:28;25.50;49.60
6468;DHT22;3267;48.794;9.928;2023-06-26T07:05:54;25.30;49.40
6468;DHT22;3267;48.794;9.928;2023-06-26T07:08:20;25.60;49.80
6468;DHT22;3267;48.794;9.928;2023-06-26T07:10:46;28.20;51.10
6468;DHT22;3267;48.794;9.928;2023-06-26T07:13:11;27.80;50.70
6468;DHT22;3267;48.794;9.928;2023-06-26T07:15:37;25.80;50.00
6468;DHT22;3267;48.794;9.928;2023-06-26T07:18:02;25.60;49.40
6468;DHT22;3267;48.794;9.928;2023-06-26T07:20:28;25.70;49.70
6468;DHT22;3267;48.794;9.928;2023-06-26T07:22:54;25.90;50.00
6468;DHT22;3267;48.794;9.928;2023-06-26T07:25:19;26.80;50.20
6468;DHT22;3267;48.794;9.928;2023-06-26T07:27:45;26.00;49.30
6468;DHT22;3267;48.794;9.928;2023-06-26T07:30:11;26.20;49.30
6468;DHT22;3267;48.794;9.928;2023-06-26T07:32:37;26.20;49.50
6468;DHT22;3267;48.794;9.928;2023-06-26T07:35:03;28.40;50.50
6468;DHT22;3267;48.794;9.928;2023-06-26T07:37:29;26.40;49.80
6468;DHT22;3267;48.794;9.928;2023-06-26T07:39:54;27.70;50.20
6468;DHT22;3267;48.794;9.928;2023-06-26T07:42:20;26.50;49.40
6468;DHT22;3267;48.794;9.928;2023-06-26T07:44:46;26.60;49.20
6468;DHT22;3267;48.794;9.928;2023-06-26T07:47:12;26.70;49.10
6468;DHT22;3267;48.794;9.928;2023-06-26T07:49:39;27.40;49.70
6468;DHT22;3267;48.794;9.928;2023-06-26T07:52:06;28.90;50.60
6468;DHT22;3267;48.794;9.928;2023-06-26T07:54:32;26.90;49.20
6468;DHT22;3267;48.794;9.928;2023-06-26T07:57:01;27.00;49.60
6468;DHT22;3267;48.794;9.928;2023-06-26T07:59:28;27.10;49.40
6468;DHT22;3267;48.794;9.928;2023-06-26T08:01:55;27.20;49.10
6468;DHT22;3267;48.794;9.928;2023-06-26T08:04:24;27.30;49.00
6468;DHT22;3267;48.794;9.928;2023-06-26T08:06:52;27.40;49.20
6468;DHT22;3267;48.794;9.928;2023-06-26T08:09:20;28.60;49.90
6468;DHT22;3267;48.794;9.928;2023-06-26T08:11:46;27.50;48.80
6468;DHT22;3267;48.794;9.928;2023-06-26T08:14:12;27.60;48.70
6468;DHT22;3267;48.794;9.928;2023-06-26T08:16:38;27.70;48.60
6468;DHT22;3267;48.794;9.928;2023-06-26T08:19:04;29.70;50.20
6468;DHT22;3267;48.794;9.928;2023-06-26T08:21:30;29.00;49.30
6468;DHT22;3267;48.794;9.928;2023-06-26T08:23:55;27.90;48.80
6468;DHT22;3267;48.794;9.928;2023-06-26T08:26:21;27.90;48.30
6468;DHT22;3267;48.794;9.928;2023-06-26T08:28:47;28.00;49.00
6468;DHT22;3267;48.794;9.928;2023-06-26T08:31:12;28.10;48.40
6468;DHT22;3267;48.794;9.928;2023-06-26T08:33:38;28.20;48.50
6468;DHT22;3267;48.794;9.928;2023-06-26T08:36:03;28.90;48.80
6468;DHT22;3267;48.794;9.928;2023-06-26T08:38:29;28.20;48.80
6468;DHT22;3267;48.794;9.928;2023-06-26T08:40:55;28.60;48.40
6468;DHT22;3267;48.794;9.928;2023-06-26T08:43:20;28.60;48.30
6468;DHT22;3267;48.794;9.928;2023-06-26T08:45:47;28.40;47.90
6468;DHT22;3267;48.794;9.928;2023-06-26T08:48:17;28.80;47.90
6468;DHT22;3267;48.794;9.928;2023-06-26T08:50:44;29.00;47.80
6468;DHT22;3267;48.794;9.928;2023-06-26T08:53:21;29.40;48.00
6468;DHT22;3267;48.794;9.928;2023-06-26T08:55:49;28.60;47.60
6468;DHT22;3267;48.794;9.928;2023-06-26T08:58:17;28.70;47.60
6468;DHT22;3267;48.794;9.928;2023-06-26T09:00:43;28.70;47.50
6468;DHT22;3267;48.794;9.928;2023-06-26T09:03:09;28.90;47.90
6468;DHT22;3267;48.794;9.928;2023-06-26T09:05:35;29.10;48.70
6468;DHT22;3267;48.794;9.928;2023-06-26T09:08:02;29.60;48.00
6468;DHT22;3267;48.794;9.928;2023-06-26T09:10:28;29.10;47.60
6468;DHT22;3267;48.794;9.928;2023-06-26T09:12:56;29.90;48.30
6468;DHT22;3267;48.794;9.928;2023-06-26T09:15:23;29.30;47.50
6468;DHT22;3267;48.794;9.928;2023-06-26T09:17:50;31.20;48.80
6468;DHT22;3267;48.794;9.928;2023-06-26T09:20:15;29.40;47.60
6468;DHT22;3267;48.794;9.928;2023-06-26T09:22:43;30.60;48.10
6468;DHT22;3267;48.794;9.928;2023-06-26T09:25:09;29.60;47.60
6468;DHT22;3267;48.794;9.928;2023-06-26T09:27:38;31.90;50.40
6468;DHT22;3267;48.794;9.928;2023-06-26T09:30:04;29.80;47.90
6468;DHT22;3267;48.794;9.928;2023-06-26T09:32:37;29.80;47.10
6468;DHT22;3267;48.794;9.928;2023-06-26T09:35:03;29.90;47.30
6468;DHT22;3267;48.794;9.928;2023-06-26T09:37:29;29.90;47.30
6468;DHT22;3267;48.794;9.928;2023-06-26T09:39:55;29.90;46.90
6468;DHT22;3267;48.794;9.928;2023-06-26T09:42:21;30.00;47.20
6468;DHT22;3267;48.794;9.928;2023-06-26T09:44:47;30.00;47.40
6468;DHT22;3267;48.794;9.928;2023-06-26T09:47:18;30.10;48.10
6468;DHT22;3267;48.794;9.928;2023-06-26T09:49:45;30.10;47.00
6468;DHT22;3267;48.794;9.928;2023-06-26T09:52:19;30.20;46.90
6468;DHT22;3267;48.794;9.928;2023-06-26T09:54:46;30.20;46.80
6468;DHT22;3267;48.794;9.928;2023-06-26T09:57:12;30.30;46.60
6468;DHT22;3267;48.794;9.928;2023-06-26T09:59:39;30.20;46.60
6468;DHT22;3267;48.794;9.928;2023-06-26T10:02:06;30.40;46.50
6468;DHT22;3267;48.794;9.928;2023-06-26T10:04:34;30.40;46.20
6468;DHT22;3267;48.794;9.928;2023-06-26T10:07:02;30.60;46.70
6468;DHT22;3267;48.794;9.928;2023-06-26T10:09:30;30.60;46.10
6468;DHT22;3267;48.794;9.928;2023-06-26T10:14:31;30.70;45.80
6468;DHT22;3267;48.794;9.928;2023-06-26T10:17:01;30.60;45.50
6468;DHT22;3267;48.794;9.928;2023-06-26T10:19:29;30.70;45.70
6468;DHT22;3267;48.794;9.928;2023-06-26T10:21:57;30.70;45.80
6468;DHT22;3267;48.794;9.928;2023-06-26T10:24:25;30.80;44.50
6468;DHT22;3267;48.794;9.928;2023-06-26T10:26:59;30.80;44.30
6468;DHT22;3267;48.794;9.928;2023-06-26T10:29:28;31.50;45.00
6468;DHT22;3267;48.794;9.928;2023-06-26T10:31:57;30.80;45.30
6468;DHT22;3267;48.794;9.928;2023-06-26T10:34:24;30.90;45.10
6468;DHT22;3267;48.794;9.928;2023-06-26T10:37:03;30.90;46.90
6468;DHT22;3267;48.794;9.928;2023-06-26T10:42:11;31.10;45.20
6468;DHT22;3267;48.794;9.928;2023-06-26T10:44:43;31.10;44.80
6468;DHT22;3267;48.794;9.928;2023-06-26T10:47:11;31.20;45.20
6468;DHT22;3267;48.794;9.928;2023-06-26T10:49:38;31.20;44.70
6468;DHT22;3267;48.794;9.928;2023-06-26T10:52:07;31.20;44.70
6468;DHT22;3267;48.794;9.928;2023-06-26T10:54:34;31.70;45.10
6468;DHT22;3267;48.794;9.928;2023-06-26T10:57:02;31.20;44.10
6468;DHT22;3267;48.794;9.928;2023-06-26T10:59:29;31.20;45.00
6468;DHT22;3267;48.794;9.928;2023-06-26T11:01:57;31.20;44.60
6468;DHT22;3267;48.794;9.928;2023-06-26T11:04:47;31.40;45.40
6468;DHT22;3267;48.794;9.928;2023-06-26T11:07:22;31.40;45.30
6468;DHT22;3267;48.794;9.928;2023-06-26T11:12:45;31.50;44.20
6468;DHT22;3267;48.794;9.928;2023-06-26T11:15:15;31.60;44.50
6468;DHT22;3267;48.794;9.928;2023-06-26T11:17:42;31.60;44.30
6468;DHT22;3267;48.794;9.928;2023-06-26T11:20:13;31.90;44.70
6468;DHT22;3267;48.794;9.928;2023-06-26T11:22:45;32.00;44.20
6468;DHT22;3267;48.794;9.928;2023-06-26T11:28:49;32.00;44.30
6468;DHT22;3267;48.794;9.928;2023-06-26T11:31:28;31.90;44.20
6468;DHT22;3267;48.794;9.928;2023-06-26T11:34:00;31.90;43.80
6468;DHT22;3267;48.794;9.928;2023-06-26T11:36:27;32.00;44.70
6468;DHT22;3267;48.794;9.928;2023-06-26T11:38:57;32.00;44.00
6468;DHT22;3267;48.794;9.928;2023-06-26T11:41:25;32.60;44.70
6468;DHT22;3267;48.794;9.928;2023-06-26T11:43:53;32.00;44.10
6468;DHT22;3267;48.794;9.928;2023-06-26T11:46:20;33.60;45.10
6468;DHT22;3267;48.794;9.928;2023-06-26T11:48:46;31.90;45.10
6468;DHT22;3267;48.794;9.928;2023-06-26T11:51:13;31.90;44.70
6468;DHT22;3267;48.794;9.928;2023-06-26T11:53:41;31.90;45.20
6468;DHT22;3267;48.794;9.928;2023-06-26T11:56:11;31.90;44.30
6468;DHT22;3267;48.794;9.928;2023-06-26T11:59:00;32.20;44.50
6468;DHT22;3267;48.794;9.928;2023-06-26T12:01:40;31.90;44.30
6468;DHT22;3267;48.794;9.928;2023-06-26T12:04:11;31.80;44.20
6468;DHT22;3267;48.794;9.928;2023-06-26T12:06:39;31.80;44.70
6468;DHT22;3267;48.794;9.928;2023-06-26T12:09:09;31.90;44.60
6468;DHT22;3267;48.794;9.928;2023-06-26T12:11:38;31.90;45.10
6468;DHT22;3267;48.794;9.928;2023-06-26T12:14:05;32.00;45.10
6468;DHT22;3267;48.794;9.928;2023-06-26T12:16:33;32.00;44.60
6468;DHT22;3267;48.794;9.928;2023-06-26T12:19:03;32.10;43.90
6468;DHT22;3267;48.794;9.928;2023-06-26T12:21:45;32.10;44.50
6468;DHT22;3267;48.794;9.928;2023-06-26T12:24:17;32.10;44.40
6468;DHT22;3267;48.794;9.928;2023-06-26T12:26:49;32.10;44.30
6468;DHT22;3267;48.794;9.928;2023-06-26T12:29:18;32.10;44.60
6468;DHT22;3267;48.794;9.928;2023-06-26T12:31:45;32.20;44.80
6468;DHT22;3267;48.794;9.928;2023-06-26T12:34:13;32.30;44.60
6468;DHT22;3267;48.794;9.928;2023-06-26T12:36:42;32.40;44.90
6468;DHT22;3267;48.794;9.928;2023-06-26T12:39:12;32.60;44.90
6468;DHT22;3267;48.794;9.928;2023-06-26T12:41:55;32.70;44.80
6468;DHT22;3267;48.794;9.928;2023-06-26T12:44:28;32.80;44.30
6468;DHT22;3267;48.794;9.928;2023-06-26T12:47:02;32.80;44.40
6468;DHT22;3267;48.794;9.928;2023-06-26T12:49:35;32.80;45.20
6468;DHT22;3267;48.794;9.928;2023-06-26T12:52:03;32.80;44.80
6468;DHT22;3267;48.794;9.928;2023-06-26T12:54:29;32.80;45.10
6468;DHT22;3267;48.794;9.928;2023-06-26T12:56:55;32.80;45.00
6468;DHT22;3267;48.794;9.928;2023-06-26T12:59:21;32.70;45.10
6468;DHT22;3267;48.794;9.928;2023-06-26T13:01:47;32.80;45.30
6468;DHT22;3267;48.794;9.928;2023-06-26T13:04:13;32.80;45.60
6468;DHT22;3267;48.794;9.928;2023-06-26T13:06:39;32.80;45.20
6468;DHT22;3267;48.794;9.928;2023-06-26T13:09:06;32.80;45.60
6468;DHT22;3267;48.794;9.928;2023-06-26T13:11:32;32.90;45.80
6468;DHT22;3267;48.794;9.928;2023-06-26T13:28:37;33.70;45.10
6468;DHT22;3267;48.794;9.928;2023-06-26T13:33:31;34.30;48.60
6468;DHT22;3267;48.794;9.928;2023-06-26T13:38:24;34.20;45.20
6468;DHT22;3267;48.794;9.928;2023-06-26T13:40:54;34.20;45.20
6468;DHT22;3267;48.794;9.928;2023-06-26T13:43:21;34.50;45.80
6468;DHT22;3267;48.794;9.928;2023-06-26T13:45:57;34.80;45.60
6468;DHT22;3267;48.794;9.928;2023-06-26T13:48:22;34.80;45.70
6468;DHT22;3267;48.794;9.928;2023-06-26T13:50:53;34.90;45.30
6468;DHT22;3267;48.794;9.928;2023-06-26T13:53:19;35.00;45.50
6468;DHT22;3267;48.794;9.928;2023-06-26T13:58:11;35.60;46.70
6468;DHT22;3267;48.794;9.928;2023-06-26T14:00:39;36.10;44.80
6468;DHT22;3267;48.794;9.928;2023-06-26T14:05:35;36.40;44.30
6468;DHT22;3267;48.794;9.928;2023-06-26T14:08:03;36.00;43.40
6468;DHT22;3267;48.794;9.928;2023-06-26T14:12:56;36.00;43.60
6468;DHT22;3267;48.794;9.928;2023-06-26T14:17:48;36.20;43.00
6468;DHT22;3267;48.794;9.928;2023-06-26T14:20:16;35.80;42.50
6468;DHT22;3267;48.794;9.928;2023-06-26T14:22:43;35.20;42.60
6468;DHT22;3267;48.794;9.928;2023-06-26T14:25:13;35.00;43.10
6468;DHT22;3267;48.794;9.928;2023-06-26T14:27:39;35.10;43.80
6468;DHT22;3267;48.794;9.928;2023-06-26T14:30:05;34.80;45.20
6468;DHT22;3267;48.794;9.928;2023-06-26T14:32:31;34.80;44.20
6468;DHT22;3267;48.794;9.928;2023-06-26T14:34:58;34.80;43.80
6468;DHT22;3267;48.794;9.928;2023-06-26T14:37:24;34.50;47.70
6468;DHT22;3267;48.794;9.928;2023-06-26T14:39:51;34.90;51.20
6468;DHT22;3267;48.794;9.928;2023-06-26T14:44:42;35.30;50.60
6468;DHT22;3267;48.794;9.928;2023-06-26T14:49:34;36.00;43.30
6468;DHT22;3267;48.794;9.928;2023-06-26T14:56:52;35.90;49.30
6468;DHT22;3267;48.794;9.928;2023-06-26T15:16:21;37.30;56.00
6468;DHT22;3267;48.794;9.928;2023-06-26T15:23:40;38.20;50.60
6468;DHT22;3267;48.794;9.928;2023-06-26T15:30:59;37.60;36.10
6468;DHT22;3267;48.794;9.928;2023-06-26T15:33:25;37.20;37.80
6468;DHT22;3267;48.794;9.928;2023-06-26T15:40:42;37.80;55.20
6468;DHT22;3267;48.794;9.928;2023-06-26T15:45:34;37.50;36.90
6468;DHT22;3267;48.794;9.928;2023-06-26T16:02:41;37.10;53.70
6468;DHT22;3267;48.794;9.928;2023-06-26T16:05:06;37.50;54.20
6468;DHT22;3267;48.794;9.928;2023-06-26T16:09:59;36.70;36.30
6468;DHT22;3267;48.794;9.928;2023-06-26T16:12:47;36.20;36.10
6468;DHT22;3267;48.794;9.928;2023-06-26T16:20:05;35.30;56.90
6468;DHT22;3267;48.794;9.928;2023-06-26T16:39:35;33.60;38.40
6468;DHT22;3267;48.794;9.928;2023-06-26T16:46:56;33.30;39.20
6468;DHT22;3267;48.794;9.928;2023-06-26T16:49:25;33.30;39.70
6468;DHT22;3267;48.794;9.928;2023-06-26T16:51:51;33.80;56.50
6468;DHT22;3267;48.794;9.928;2023-06-26T16:54:22;34.30;39.70
6468;DHT22;3267;48.794;9.928;2023-06-26T16:56:47;35.00;38.90
6468;DHT22;3267;48.794;9.928;2023-06-26T16:59:13;35.10;38.30
6468;DHT22;3267;48.794;9.928;2023-06-26T17:01:39;35.10;38.40
6468;DHT22;3267;48.794;9.928;2023-06-26T17:06:30;35.20;56.10
6468;DHT22;3267;48.794;9.928;2023-06-26T17:08:57;35.80;39.40
6468;DHT22;3267;48.794;9.928;2023-06-26T17:30:51;34.10;38.10
6468;DHT22;3267;48.794;9.928;2023-06-26T17:33:18;33.40;58.00
6468;DHT22;3267;48.794;9.928;2023-06-26T18:00:07;32.40;40.40
6468;DHT22;3267;48.794;9.928;2023-06-26T18:02:34;32.30;39.30
6468;DHT22;3267;48.794;9.928;2023-06-26T18:05:03;32.20;39.00
6468;DHT22;3267;48.794;9.928;2023-06-26T18:12:21;31.90;39.40
6468;DHT22;3267;48.794;9.928;2023-06-26T18:14:46;31.70;38.50
6468;DHT22;3267;48.794;9.928;2023-06-26T18:17:14;31.60;37.90
6468;DHT22;3267;48.794;9.928;2023-06-26T18:22:06;31.30;37.80
6468;DHT22;3267;48.794;9.928;2023-06-26T18:26:57;31.60;37.10
6468;DHT22;3267;48.794;9.928;2023-06-26T18:29:23;31.20;37.20
6468;DHT22;3267;48.794;9.928;2023-06-26T18:34:14;31.10;37.60
6468;DHT22;3267;48.794;9.928;2023-06-26T18:36:40;31.30;38.00
6468;DHT22;3267;48.794;9.928;2023-06-26T18:39:06;30.80;35.90
6468;DHT22;3267;48.794;9.928;2023-06-26T18:46:24;30.10;35.50
6468;DHT22;3267;48.794;9.928;2023-06-26T18:49:03;30.00;37.30
6468;DHT22;3267;48.794;9.928;2023-06-26T18:51:30;29.80;36.90
6468;DHT22;3267;48.794;9.928;2023-06-26T18:53:56;29.60;36.60
6468;DHT22;3267;48.794;9.928;2023-06-26T18:56:27;29.60;37.20
6468;DHT22;3267;48.794;9.928;2023-06-26T18:58:53;29.40;36.80
6468;DHT22;3267;48.794;9.928;2023-06-26T19:01:18;29.30;37.20
6468;DHT22;3267;48.794;9.928;2023-06-26T19:03:44;29.20;37.30
6468;DHT22;3267;48.794;9.928;2023-06-26T19:06:09;30.10;38.20
6468;DHT22;3267;48.794;9.928;2023-06-26T19:08:35;29.80;37.60
6468;DHT22;3267;48.794;9.928;2023-06-26T19:11:01;29.00;37.00
6468;DHT22;3267;48.794;9.928;2023-06-26T19:13:26;28.80;37.90
6468;DHT22;3267;48.794;9.928;2023-06-26T19:15:52;28.70;38.00
6468;DHT22;3267;48.794;9.928;2023-06-26T19:18:18;28.70;38.50
6468;DHT22;3267;48.794;9.928;2023-06-26T19:20:43;28.60;37.60
6468;DHT22;3267;48.794;9.928;2023-06-26T19:23:09;28.40;36.70
6468;DHT22;3267;48.794;9.928;2023-06-26T19:25:35;29.20;38.60
6468;DHT22;3267;48.794;9.928;2023-06-26T19:28:00;28.20;37.60
6468;DHT22;3267;48.794;9.928;2023-06-26T19:30:26;28.10;37.60
6468;DHT22;3267;48.794;9.928;2023-06-26T19:32:51;28.00;38.40
6468;DHT22;3267;48.794;9.928;2023-06-26T19:35:17;28.70;39.20
6468;DHT22;3267;48.794;9.928;2023-06-26T19:37:43;27.80;37.80
6468;DHT22;3267;48.794;9.928;2023-06-26T19:40:08;28.90;39.20
6468;DHT22;3267;48.794;9.928;2023-06-26T19:42:34;27.60;38.10
6468;DHT22;3267;48.794;9.928;2023-06-26T19:45:00;27.80;38.70
6468;DHT22;3267;48.794;9.928;2023-06-26T19:47:25;28.30;39.80
6468;DHT22;3267;48.794;9.928;2023-06-26T19:49:51;27.50;38.80
6468;DHT22;3267;48.794;9.928;2023-06-26T19:52:17;27.30;38.80
6468;DHT22;3267;48.794;9.928;2023-06-26T19:54:42;27.20;38.40
6468;DHT22;3267;48.794;9.928;2023-06-26T19:57:08;27.20;39.20
6468;DHT22;3267;48.794;9.928;2023-06-26T19:59:37;27.20;39.50
6468;DHT22;3267;48.794;9.928;2023-06-26T20:02:03;27.10;39.30
6468;DHT22;3267;48.794;9.928;2023-06-26T20:04:29;27.00;39.80
6468;DHT22;3267;48.794;9.928;2023-06-26T20:06:55;27.00;39.10
6468;DHT22;3267;48.794;9.928;2023-06-26T20:09:29;26.90;40.10
6468;DHT22;3267;48.794;9.928;2023-06-26T20:11:57;26.90;39.80
6468;DHT22;3267;48.794;9.928;2023-06-26T20:14:24;26.90;41.10
6468;DHT22;3267;48.794;9.928;2023-06-26T20:16:49;27.40;40.50
6468;DHT22;3267;48.794;9.928;2023-06-26T20:19:15;26.90;40.70
6468;DHT22;3267;48.794;9.928;2023-06-26T20:21:41;26.80;40.60
6468;DHT22;3267;48.794;9.928;2023-06-26T20:24:06;28.10;41.50
6468;DHT22;3267;48.794;9.928;2023-06-26T20:26:32;26.70;40.20
6468;DHT22;3267;48.794;9.928;2023-06-26T20:28:58;27.30;41.40
6468;DHT22;3267;48.794;9.928;2023-06-26T20:31:23;28.10;41.80
6468;DHT22;3267;48.794;9.928;2023-06-26T20:33:49;26.50;40.40
6468;DHT22;3267;48.794;9.928;2023-06-26T20:36:15;26.50;40.70
6468;DHT22;3267;48.794;9.928;2023-06-26T20:38:40;26.40;40.60
6468;DHT22;3267;48.794;9.928;2023-06-26T20:41:06;27.80;41.90
6468;DHT22;3267;48.794;9.928;2023-06-26T20:43:32;26.40;40.90
6468;DHT22;3267;48.794;9.928;2023-06-26T20:45:58;26.20;40.30
6468;DHT22;3267;48.794;9.928;2023-06-26T20:48:24;26.20;40.50
6468;DHT22;3267;48.794;9.928;2023-06-26T20:50:50;26.20;41.00
6468;DHT22;3267;48.794;9.928;2023-06-26T20:53:16;26.10;41.70
6468;DHT22;3267;48.794;9.928;2023-06-26T20:55:42;26.10;41.40
6468;DHT22;3267;48.794;9.928;2023-06-26T20:58:07;26.00;41.00
6468;DHT22;3267;48.794;9.928;2023-06-26T21:00:33;26.60;41.50
6468;DHT22;3267;48.794;9.928;2023-06-26T21:02:59;25.80;40.80
6468;DHT22;3267;48.794;9.928;2023-06-26T21:05:24;25.80;41.20
6468;DHT22;3267;48.794;9.928;2023-06-26T21:07:50;25.80;41.50
6468;DHT22;3267;48.794;9.928;2023-06-26T21:10:15;25.80;41.10
6468;DHT22;3267;48.794;9.928;2023-06-26T21:12:46;25.70;40.90
6468;DHT22;3267;48.794;9.928;2023-06-26T21:15:11;25.70;41.30
6468;DHT22;3267;48.794;9.928;2023-06-26T21:17:37;25.60;40.90
6468;DHT22;3267;48.794;9.928;2023-06-26T21:20:03;25.60;41.60
6468;DHT22;3267;48.794;9.928;2023-06-26T21:22:30;25.50;40.70
6468;DHT22;3267;48.794;9.928;2023-06-26T21:24:56;25.50;41.50
6468;DHT22;3267;48.794;9.928;2023-06-26T21:27:21;25.40;41.20
6468;DHT22;3267;48.794;9.928;2023-06-26T21:29:47;25.30;41.10
